sensor_id;sensor_type;location;lat;lon;timestamp;P1;durP1;ratioP1;P2;durP2;ratioP2
12302;SDS011;6214;48.012;7.862;2023-03-01T00:00:15;22.95;;;10.25;;
12302;SDS011;6214;48.012;7.862;2023-03-01T00:02:42;21.60;;;10.23;;
12302;SDS011;6214;48.012;7.862;2023-03-01T00:05:09;22.80;;;10.30;;
12302;SDS011;6214;48.012;7.862;2023-03-01T00:07:36;23.75;;;10.20;;
12302;SDS011;6214;48.012;7.862;2023-03-01T00:10:03;21.42;;;9.48;;
12302;SDS011;6214;48.012;7.862;2023-03-01T00:12:31;22.60;;;10.30;;
12302;SDS011;6214;48.012;7.862;2023-03-01T00:14:58;24.23;;;11.20;;
12302;SDS011;6214;48.012;7.862;2023-03-01T00:17:25;22.07;;;10.20;;
12302;SDS011;6214;48.012;7.862;2023-03-01T00:19:53;23.17;;;11.23;;
12302;SDS011;6214;48.012;7.862;2023-03-01T00:22:20;22.20;;;10.27;;
12302;SDS011;6214;48.012;7.862;2023-03-01T00:24:47;22.52;;;10.60;;
12302;SDS011;6214;48.012;7.862;2023-03-01T00:27:14;21.80;;;10.52;;
12302;SDS011;6214;48.012;7.862;2023-03-01T00:29:41;23.27;;;10.85;;
12302;SDS011;6214;48.012;7.862;2023-03-01T00:32:08;22.38;;;10.02;;
12302;SDS011;6214;48.012;7.862;2023-03-01T00:34:35;23.25;;;9.98;;
12302;SDS011;6214;48.012;7.862;2023-03-01T00:37:02;23.45;;;10.43;;
12302;SDS011;6214;48.012;7.862;2023-03-01T00:39:31;22.60;;;10.07;;
12302;SDS011;6214;48.012;7.862;2023-03-01T00:41:59;22.85;;;9.90;;
12302;SDS011;6214;48.012;7.862;2023-03-01T00:44:27;22.63;;;10.75;;
12302;SDS011;6214;48.012;7.862;2023-03-01T00:46:54;23.08;;;10.82;;
12302;SDS011;6214;48.012;7.862;2023-03-01T00:49:21;23.17;;;11.00;;
12302;SDS011;6214;48.012;7.862;2023-03-01T00:51:50;24.00;;;11.48;;
12302;SDS011;6214;48.012;7.862;2023-03-01T00:54:17;24.23;;;11.63;;
12302;SDS011;6214;48.012;7.862;2023-03-01T00:56:44;24.97;;;11.40;;
12302;SDS011;6214;48.012;7.862;2023-03-01T00:59:11;23.60;;;10.65;;
12302;SDS011;6214;48.012;7.862;2023-03-01T01:01:38;24.85;;;11.30;;
12302;SDS011;6214;48.012;7.862;2023-03-01T01:04:06;23.23;;;10.57;;
12302;SDS011;6214;48.012;7.862;2023-03-01T01:06:37;24.40;;;11.40;;
12302;SDS011;6214;48.012;7.862;2023-03-01T01:09:06;22.70;;;10.68;;
12302;SDS011;6214;48.012;7.862;2023-03-01T01:11:33;22.45;;;10.88;;
12302;SDS011;6214;48.012;7.862;2023-03-01T01:14:03;24.10;;;11.50;;
12302;SDS011;6214;48.012;7.862;2023-03-01T01:16:31;23.10;;;10.55;;
12302;SDS011;6214;48.012;7.862;2023-03-01T01:18:58;24.35;;;11.32;;
12302;SDS011;6214;48.012;7.862;2023-03-01T01:21:25;23.17;;;11.35;;
12302;SDS011;6214;48.012;7.862;2023-03-01T01:23:53;24.02;;;11.48;;
12302;SDS011;6214;48.012;7.862;2023-03-01T01:26:25;24.30;;;11.68;;
12302;SDS011;6214;48.012;7.862;2023-03-01T01:28:54;24.55;;;11.90;;
12302;SDS011;6214;48.012;7.862;2023-03-01T01:31:22;25.50;;;12.20;;
12302;SDS011;6214;48.012;7.862;2023-03-01T01:33:50;25.60;;;12.95;;
12302;SDS011;6214;48.012;7.862;2023-03-01T01:36:20;24.52;;;11.60;;
12302;SDS011;6214;48.012;7.862;2023-03-01T01:38:48;25.00;;;12.63;;
12302;SDS011;6214;48.012;7.862;2023-03-01T01:41:15;25.23;;;12.38;;
12302;SDS011;6214;48.012;7.862;2023-03-01T01:43:43;23.17;;;12.00;;
12302;SDS011;6214;48.012;7.862;2023-03-01T01:49:38;25.00;;;12.10;;
12302;SDS011;6214;48.012;7.862;2023-03-01T01:57:19;24.85;;;12.40;;
12302;SDS011;6214;48.012;7.862;2023-03-01T01:59:59;25.92;;;12.77;;
12302;SDS011;6214;48.012;7.862;2023-03-01T02:02:30;24.42;;;11.95;;
12302;SDS011;6214;48.012;7.862;2023-03-01T02:05:03;23.77;;;11.15;;
12302;SDS011;6214;48.012;7.862;2023-03-01T02:07:37;26.02;;;12.20;;
12302;SDS011;6214;48.012;7.862;2023-03-01T02:10:05;24.05;;;11.85;;
12302;SDS011;6214;48.012;7.862;2023-03-01T02:12:33;24.38;;;11.20;;
12302;SDS011;6214;48.012;7.862;2023-03-01T02:15:02;23.83;;;11.65;;
12302;SDS011;6214;48.012;7.862;2023-03-01T02:17:29;24.60;;;11.60;;
12302;SDS011;6214;48.012;7.862;2023-03-01T02:22:57;25.30;;;12.70;;
12302;SDS011;6214;48.012;7.862;2023-03-01T02:28:38;24.77;;;12.97;;
12302;SDS011;6214;48.012;7.862;2023-03-01T02:31:09;24.92;;;12.30;;
12302;SDS011;6214;48.012;7.862;2023-03-01T02:33:59;24.65;;;11.73;;
12302;SDS011;6214;48.012;7.862;2023-03-01T02:36:37;25.65;;;12.82;;
12302;SDS011;6214;48.012;7.862;2023-03-01T02:39:15;24.92;;;12.90;;
12302;SDS011;6214;48.012;7.862;2023-03-01T02:41:47;25.20;;;13.27;;
12302;SDS011;6214;48.012;7.862;2023-03-01T02:44:16;24.60;;;12.20;;
12302;SDS011;6214;48.012;7.862;2023-03-01T02:46:44;26.00;;;12.30;;
12302;SDS011;6214;48.012;7.862;2023-03-01T02:54:29;25.98;;;12.88;;
12302;SDS011;6214;48.012;7.862;2023-03-01T02:57:38;24.50;;;12.00;;
12302;SDS011;6214;48.012;7.862;2023-03-01T03:00:12;25.80;;;13.02;;
12302;SDS011;6214;48.012;7.862;2023-03-01T03:02:49;27.20;;;13.25;;
12302;SDS011;6214;48.012;7.862;2023-03-01T03:05:22;25.50;;;13.13;;
12302;SDS011;6214;48.012;7.862;2023-03-01T03:07:55;28.10;;;13.90;;
12302;SDS011;6214;48.012;7.862;2023-03-01T03:10:25;25.90;;;12.13;;
12302;SDS011;6214;48.012;7.862;2023-03-01T03:13:00;25.87;;;13.37;;
12302;SDS011;6214;48.012;7.862;2023-03-01T03:15:34;26.95;;;14.23;;
12302;SDS011;6214;48.012;7.862;2023-03-01T03:18:07;26.45;;;13.70;;
12302;SDS011;6214;48.012;7.862;2023-03-01T03:20:38;28.90;;;14.30;;
12302;SDS011;6214;48.012;7.862;2023-03-01T03:23:06;26.20;;;13.52;;
12302;SDS011;6214;48.012;7.862;2023-03-01T03:25:34;27.15;;;14.45;;
12302;SDS011;6214;48.012;7.862;2023-03-01T03:28:04;26.50;;;14.57;;
12302;SDS011;6214;48.012;7.862;2023-03-01T03:30:37;25.80;;;14.50;;
12302;SDS011;6214;48.012;7.862;2023-03-01T03:33:05;27.67;;;14.13;;
12302;SDS011;6214;48.012;7.862;2023-03-01T03:35:37;27.47;;;14.50;;
12302;SDS011;6214;48.012;7.862;2023-03-01T03:38:08;27.15;;;15.00;;
12302;SDS011;6214;48.012;7.862;2023-03-01T03:40:46;27.05;;;14.77;;
12302;SDS011;6214;48.012;7.862;2023-03-01T03:43:16;27.27;;;14.35;;
12302;SDS011;6214;48.012;7.862;2023-03-01T03:45:48;26.65;;;13.77;;
12302;SDS011;6214;48.012;7.862;2023-03-01T03:48:17;26.58;;;14.20;;
12302;SDS011;6214;48.012;7.862;2023-03-01T03:50:49;27.77;;;14.85;;
12302;SDS011;6214;48.012;7.862;2023-03-01T03:53:18;26.90;;;14.68;;
12302;SDS011;6214;48.012;7.862;2023-03-01T03:55:46;28.02;;;14.45;;
12302;SDS011;6214;48.012;7.862;2023-03-01T03:58:15;27.73;;;14.90;;
12302;SDS011;6214;48.012;7.862;2023-03-01T04:00:44;27.52;;;14.93;;
12302;SDS011;6214;48.012;7.862;2023-03-01T04:03:13;28.27;;;15.10;;
12302;SDS011;6214;48.012;7.862;2023-03-01T04:05:41;28.70;;;15.38;;
12302;SDS011;6214;48.012;7.862;2023-03-01T04:08:09;28.25;;;15.70;;
12302;SDS011;6214;48.012;7.862;2023-03-01T04:13:05;28.15;;;16.20;;
12302;SDS011;6214;48.012;7.862;2023-03-01T04:15:33;28.25;;;15.75;;
12302;SDS011;6214;48.012;7.862;2023-03-01T04:18:00;27.92;;;15.88;;
12302;SDS011;6214;48.012;7.862;2023-03-01T04:20:29;27.80;;;15.80;;
12302;SDS011;6214;48.012;7.862;2023-03-01T04:23:07;29.55;;;15.00;;
12302;SDS011;6214;48.012;7.862;2023-03-01T04:28:11;28.85;;;16.30;;
12302;SDS011;6214;48.012;7.862;2023-03-01T04:30:38;27.05;;;15.30;;
12302;SDS011;6214;48.012;7.862;2023-03-01T04:33:06;27.60;;;15.90;;
12302;SDS011;6214;48.012;7.862;2023-03-01T04:35:35;27.77;;;15.18;;
12302;SDS011;6214;48.012;7.862;2023-03-01T04:38:03;27.23;;;15.02;;
12302;SDS011;6214;48.012;7.862;2023-03-01T04:40:31;28.63;;;16.13;;
12302;SDS011;6214;48.012;7.862;2023-03-01T04:42:59;27.00;;;14.70;;
12302;SDS011;6214;48.012;7.862;2023-03-01T04:45:26;27.58;;;15.65;;
12302;SDS011;6214;48.012;7.862;2023-03-01T04:47:54;27.27;;;14.85;;
12302;SDS011;6214;48.012;7.862;2023-03-01T04:50:21;29.00;;;16.57;;
12302;SDS011;6214;48.012;7.862;2023-03-01T04:52:50;27.50;;;15.50;;
12302;SDS011;6214;48.012;7.862;2023-03-01T04:55:17;27.50;;;15.40;;
12302;SDS011;6214;48.012;7.862;2023-03-01T04:57:44;28.30;;;14.88;;
12302;SDS011;6214;48.012;7.862;2023-03-01T05:00:14;29.50;;;15.40;;
12302;SDS011;6214;48.012;7.862;2023-03-01T05:02:49;28.90;;;16.50;;
12302;SDS011;6214;48.012;7.862;2023-03-01T05:05:29;28.65;;;16.27;;
12302;SDS011;6214;48.012;7.862;2023-03-01T05:08:00;29.77;;;15.83;;
12302;SDS011;6214;48.012;7.862;2023-03-01T05:10:30;28.75;;;16.05;;
12302;SDS011;6214;48.012;7.862;2023-03-01T05:12:58;29.13;;;15.68;;
12302;SDS011;6214;48.012;7.862;2023-03-01T05:15:26;28.87;;;16.10;;
12302;SDS011;6214;48.012;7.862;2023-03-01T05:17:55;28.55;;;16.02;;
12302;SDS011;6214;48.012;7.862;2023-03-01T05:20:25;27.85;;;16.10;;
12302;SDS011;6214;48.012;7.862;2023-03-01T05:22:54;28.55;;;15.52;;
12302;SDS011;6214;48.012;7.862;2023-03-01T05:25:26;28.35;;;16.40;;
12302;SDS011;6214;48.012;7.862;2023-03-01T05:27:53;28.92;;;16.60;;
12302;SDS011;6214;48.012;7.862;2023-03-01T05:30:20;28.98;;;15.63;;
12302;SDS011;6214;48.012;7.862;2023-03-01T05:32:48;28.40;;;16.40;;
12302;SDS011;6214;48.012;7.862;2023-03-01T05:35:22;29.45;;;17.00;;
12302;SDS011;6214;48.012;7.862;2023-03-01T05:37:50;30.00;;;18.83;;
12302;SDS011;6214;48.012;7.862;2023-03-01T05:40:18;29.35;;;17.10;;
12302;SDS011;6214;48.012;7.862;2023-03-01T05:42:51;29.50;;;16.80;;
12302;SDS011;6214;48.012;7.862;2023-03-01T05:45:21;28.92;;;17.00;;
12302;SDS011;6214;48.012;7.862;2023-03-01T05:47:49;32.08;;;19.52;;
12302;SDS011;6214;48.012;7.862;2023-03-01T05:50:27;30.55;;;18.40;;
12302;SDS011;6214;48.012;7.862;2023-03-01T05:52:59;28.95;;;16.77;;
12302;SDS011;6214;48.012;7.862;2023-03-01T05:55:32;30.52;;;18.90;;
12302;SDS011;6214;48.012;7.862;2023-03-01T05:58:04;29.25;;;16.60;;
12302;SDS011;6214;48.012;7.862;2023-03-01T06:00:34;30.35;;;17.25;;
12302;SDS011;6214;48.012;7.862;2023-03-01T06:03:01;32.63;;;22.15;;
12302;SDS011;6214;48.012;7.862;2023-03-01T06:05:28;31.70;;;19.92;;
12302;SDS011;6214;48.012;7.862;2023-03-01T06:07:58;30.80;;;18.90;;
12302;SDS011;6214;48.012;7.862;2023-03-01T06:10:26;28.92;;;16.75;;
12302;SDS011;6214;48.012;7.862;2023-03-01T06:12:53;29.42;;;16.27;;
12302;SDS011;6214;48.012;7.862;2023-03-01T06:15:21;29.65;;;16.85;;
12302;SDS011;6214;48.012;7.862;2023-03-01T06:17:49;28.92;;;16.20;;
12302;SDS011;6214;48.012;7.862;2023-03-01T06:20:20;28.50;;;16.70;;
12302;SDS011;6214;48.012;7.862;2023-03-01T06:22:50;29.55;;;16.80;;
12302;SDS011;6214;48.012;7.862;2023-03-01T06:25:18;30.35;;;17.25;;
12302;SDS011;6214;48.012;7.862;2023-03-01T06:27:46;29.98;;;17.17;;
12302;SDS011;6214;48.012;7.862;2023-03-01T06:30:15;30.17;;;16.58;;
12302;SDS011;6214;48.012;7.862;2023-03-01T06:32:44;30.27;;;17.05;;
12302;SDS011;6214;48.012;7.862;2023-03-01T06:35:11;30.08;;;17.23;;
12302;SDS011;6214;48.012;7.862;2023-03-01T06:37:40;30.65;;;16.85;;
12302;SDS011;6214;48.012;7.862;2023-03-01T06:40:08;30.95;;;17.05;;
12302;SDS011;6214;48.012;7.862;2023-03-01T06:42:38;29.70;;;16.70;;
12302;SDS011;6214;48.012;7.862;2023-03-01T06:45:07;30.27;;;17.25;;
12302;SDS011;6214;48.012;7.862;2023-03-01T06:47:35;27.55;;;14.70;;
12302;SDS011;6214;48.012;7.862;2023-03-01T06:50:02;29.55;;;15.90;;
12302;SDS011;6214;48.012;7.862;2023-03-01T06:52:29;28.43;;;14.43;;
12302;SDS011;6214;48.012;7.862;2023-03-01T06:54:57;29.15;;;15.65;;
12302;SDS011;6214;48.012;7.862;2023-03-01T06:57:24;28.40;;;13.63;;
12302;SDS011;6214;48.012;7.862;2023-03-01T06:59:51;30.55;;;17.30;;
12302;SDS011;6214;48.012;7.862;2023-03-01T07:02:18;30.20;;;16.40;;
12302;SDS011;6214;48.012;7.862;2023-03-01T07:04:45;27.88;;;15.63;;
12302;SDS011;6214;48.012;7.862;2023-03-01T07:07:12;31.05;;;19.00;;
12302;SDS011;6214;48.012;7.862;2023-03-01T07:09:39;28.60;;;16.77;;
12302;SDS011;6214;48.012;7.862;2023-03-01T07:12:06;32.50;;;17.48;;
12302;SDS011;6214;48.012;7.862;2023-03-01T07:14:34;32.08;;;17.17;;
12302;SDS011;6214;48.012;7.862;2023-03-01T07:17:01;29.30;;;16.27;;
12302;SDS011;6214;48.012;7.862;2023-03-01T07:19:28;29.77;;;17.10;;
12302;SDS011;6214;48.012;7.862;2023-03-01T07:21:55;29.67;;;16.95;;
12302;SDS011;6214;48.012;7.862;2023-03-01T07:24:23;29.98;;;17.02;;
12302;SDS011;6214;48.012;7.862;2023-03-01T07:26:50;30.55;;;17.00;;
12302;SDS011;6214;48.012;7.862;2023-03-01T07:29:18;29.75;;;17.08;;
12302;SDS011;6214;48.012;7.862;2023-03-01T07:31:45;28.80;;;16.77;;
12302;SDS011;6214;48.012;7.862;2023-03-01T07:34:12;29.80;;;16.47;;
12302;SDS011;6214;48.012;7.862;2023-03-01T07:36:39;30.50;;;16.90;;
12302;SDS011;6214;48.012;7.862;2023-03-01T07:39:09;28.60;;;16.67;;
12302;SDS011;6214;48.012;7.862;2023-03-01T07:41:37;31.00;;;17.98;;
12302;SDS011;6214;48.012;7.862;2023-03-01T07:44:04;30.20;;;17.38;;
12302;SDS011;6214;48.012;7.862;2023-03-01T07:46:31;28.88;;;15.00;;
12302;SDS011;6214;48.012;7.862;2023-03-01T07:48:58;28.52;;;16.58;;
12302;SDS011;6214;48.012;7.862;2023-03-01T07:51:26;30.08;;;17.40;;
12302;SDS011;6214;48.012;7.862;2023-03-01T07:53:53;27.60;;;15.80;;
12302;SDS011;6214;48.012;7.862;2023-03-01T07:56:19;29.85;;;17.08;;
12302;SDS011;6214;48.012;7.862;2023-03-01T07:58:48;29.50;;;17.40;;
12302;SDS011;6214;48.012;7.862;2023-03-01T08:01:17;29.83;;;17.47;;
12302;SDS011;6214;48.012;7.862;2023-03-01T08:03:45;28.60;;;15.73;;
12302;SDS011;6214;48.012;7.862;2023-03-01T08:06:13;29.50;;;15.23;;
12302;SDS011;6214;48.012;7.862;2023-03-01T08:08:43;29.20;;;16.67;;
12302;SDS011;6214;48.012;7.862;2023-03-01T08:11:11;29.85;;;16.80;;
12302;SDS011;6214;48.012;7.862;2023-03-01T08:13:40;28.23;;;15.05;;
12302;SDS011;6214;48.012;7.862;2023-03-01T08:16:12;31.80;;;17.52;;
12302;SDS011;6214;48.012;7.862;2023-03-01T08:18:41;28.38;;;15.77;;
12302;SDS011;6214;48.012;7.862;2023-03-01T08:21:10;27.23;;;15.27;;
12302;SDS011;6214;48.012;7.862;2023-03-01T08:23:39;30.60;;;17.65;;
12302;SDS011;6214;48.012;7.862;2023-03-01T08:26:10;30.63;;;18.20;;
12302;SDS011;6214;48.012;7.862;2023-03-01T08:28:39;26.70;;;14.32;;
12302;SDS011;6214;48.012;7.862;2023-03-01T08:31:20;29.52;;;17.17;;
12302;SDS011;6214;48.012;7.862;2023-03-01T08:34:00;27.75;;;14.93;;
12302;SDS011;6214;48.012;7.862;2023-03-01T08:36:30;29.05;;;17.13;;
12302;SDS011;6214;48.012;7.862;2023-03-01T08:38:59;28.92;;;16.33;;
12302;SDS011;6214;48.012;7.862;2023-03-01T08:41:27;31.48;;;17.90;;
12302;SDS011;6214;48.012;7.862;2023-03-01T08:43:54;30.30;;;17.95;;
12302;SDS011;6214;48.012;7.862;2023-03-01T08:46:29;30.55;;;17.70;;
12302;SDS011;6214;48.012;7.862;2023-03-01T08:49:11;30.70;;;18.20;;
12302;SDS011;6214;48.012;7.862;2023-03-01T08:51:41;29.75;;;17.80;;
12302;SDS011;6214;48.012;7.862;2023-03-01T08:54:11;28.55;;;16.95;;
12302;SDS011;6214;48.012;7.862;2023-03-01T08:56:41;29.02;;;17.27;;
12302;SDS011;6214;48.012;7.862;2023-03-01T08:59:09;30.00;;;18.33;;
12302;SDS011;6214;48.012;7.862;2023-03-01T09:01:39;30.55;;;17.95;;
12302;SDS011;6214;48.012;7.862;2023-03-01T09:04:10;28.80;;;17.67;;
12302;SDS011;6214;48.012;7.862;2023-03-01T09:06:41;29.47;;;17.83;;
12302;SDS011;6214;48.012;7.862;2023-03-01T09:09:12;30.08;;;17.88;;
12302;SDS011;6214;48.012;7.862;2023-03-01T09:11:44;29.88;;;17.58;;
12302;SDS011;6214;48.012;7.862;2023-03-01T09:14:16;29.52;;;17.40;;
12302;SDS011;6214;48.012;7.862;2023-03-01T09:16:43;29.67;;;18.08;;
12302;SDS011;6214;48.012;7.862;2023-03-01T09:19:11;28.50;;;16.70;;
12302;SDS011;6214;48.012;7.862;2023-03-01T09:21:39;28.85;;;17.45;;
12302;SDS011;6214;48.012;7.862;2023-03-01T09:24:11;28.73;;;17.05;;
12302;SDS011;6214;48.012;7.862;2023-03-01T09:26:40;29.20;;;17.40;;
12302;SDS011;6214;48.012;7.862;2023-03-01T09:29:07;28.77;;;17.20;;
12302;SDS011;6214;48.012;7.862;2023-03-01T09:31:36;29.98;;;17.80;;
12302;SDS011;6214;48.012;7.862;2023-03-01T09:34:03;28.65;;;17.10;;
12302;SDS011;6214;48.012;7.862;2023-03-01T09:36:31;31.48;;;20.48;;
12302;SDS011;6214;48.012;7.862;2023-03-01T09:38:59;30.38;;;18.33;;
12302;SDS011;6214;48.012;7.862;2023-03-01T09:46:44;28.38;;;16.83;;
12302;SDS011;6214;48.012;7.862;2023-03-01T09:49:14;29.05;;;18.58;;
12302;SDS011;6214;48.012;7.862;2023-03-01T09:51:56;32.35;;;24.67;;
12302;SDS011;6214;48.012;7.862;2023-03-01T09:54:26;28.90;;;17.20;;
12302;SDS011;6214;48.012;7.862;2023-03-01T09:56:59;29.20;;;17.50;;
12302;SDS011;6214;48.012;7.862;2023-03-01T10:07:58;28.92;;;17.77;;
12302;SDS011;6214;48.012;7.862;2023-03-01T10:10:33;30.85;;;17.48;;
12302;SDS011;6214;48.012;7.862;2023-03-01T10:13:05;28.45;;;16.98;;
12302;SDS011;6214;48.012;7.862;2023-03-01T10:15:53;30.15;;;18.15;;
12302;SDS011;6214;48.012;7.862;2023-03-01T10:18:29;30.63;;;18.48;;
12302;SDS011;6214;48.012;7.862;2023-03-01T10:23:27;29.80;;;18.10;;
12302;SDS011;6214;48.012;7.862;2023-03-01T10:31:24;29.23;;;17.67;;
12302;SDS011;6214;48.012;7.862;2023-03-01T10:33:56;28.98;;;17.45;;
12302;SDS011;6214;48.012;7.862;2023-03-01T10:36:23;29.55;;;17.80;;
12302;SDS011;6214;48.012;7.862;2023-03-01T10:38:52;30.30;;;18.38;;
12302;SDS011;6214;48.012;7.862;2023-03-01T10:41:24;27.85;;;16.13;;
12302;SDS011;6214;48.012;7.862;2023-03-01T10:43:54;29.15;;;17.35;;
12302;SDS011;6214;48.012;7.862;2023-03-01T10:46:29;30.50;;;18.60;;
12302;SDS011;6214;48.012;7.862;2023-03-01T10:51:49;30.80;;;17.50;;
12302;SDS011;6214;48.012;7.862;2023-03-01T10:54:28;30.30;;;18.07;;
12302;SDS011;6214;48.012;7.862;2023-03-01T10:56:57;28.27;;;16.50;;
12302;SDS011;6214;48.012;7.862;2023-03-01T10:59:37;29.33;;;17.50;;
12302;SDS011;6214;48.012;7.862;2023-03-01T11:02:25;30.92;;;18.90;;
12302;SDS011;6214;48.012;7.862;2023-03-01T11:05:00;30.95;;;19.20;;
12302;SDS011;6214;48.012;7.862;2023-03-01T11:07:29;29.17;;;19.00;;
12302;SDS011;6214;48.012;7.862;2023-03-01T11:09:56;28.70;;;17.35;;
12302;SDS011;6214;48.012;7.862;2023-03-01T11:12:23;27.60;;;16.33;;
12302;SDS011;6214;48.012;7.862;2023-03-01T11:14:54;31.33;;;18.92;;
12302;SDS011;6214;48.012;7.862;2023-03-01T11:17:29;30.50;;;18.43;;
12302;SDS011;6214;48.012;7.862;2023-03-01T11:22:43;30.00;;;19.60;;
12302;SDS011;6214;48.012;7.862;2023-03-01T11:25:26;29.53;;;18.00;;
12302;SDS011;6214;48.012;7.862;2023-03-01T11:28:05;28.60;;;17.52;;
12302;SDS011;6214;48.012;7.862;2023-03-01T11:30:48;29.77;;;17.95;;
12302;SDS011;6214;48.012;7.862;2023-03-01T11:33:41;29.77;;;17.90;;
12302;SDS011;6214;48.012;7.862;2023-03-01T11:36:35;29.20;;;18.00;;
12302;SDS011;6214;48.012;7.862;2023-03-01T11:39:16;29.77;;;17.50;;
12302;SDS011;6214;48.012;7.862;2023-03-01T11:41:53;29.25;;;17.90;;
12302;SDS011;6214;48.012;7.862;2023-03-01T11:44:46;28.63;;;17.45;;
12302;SDS011;6214;48.012;7.862;2023-03-01T12:06:38;27.30;;;15.60;;
12302;SDS011;6214;48.012;7.862;2023-03-01T12:09:38;26.33;;;14.80;;
12302;SDS011;6214;48.012;7.862;2023-03-01T12:12:30;25.80;;;14.80;;
12302;SDS011;6214;48.012;7.862;2023-03-01T12:23:34;27.00;;;15.73;;
12302;SDS011;6214;48.012;7.862;2023-03-01T12:29:02;25.75;;;14.50;;
12302;SDS011;6214;48.012;7.862;2023-03-01T12:32:09;25.70;;;14.55;;
12302;SDS011;6214;48.012;7.862;2023-03-01T12:34:43;25.27;;;15.10;;
12302;SDS011;6214;48.012;7.862;2023-03-01T12:50:24;26.00;;;14.63;;
12302;SDS011;6214;48.012;7.862;2023-03-01T12:53:05;25.23;;;13.95;;
12302;SDS011;6214;48.012;7.862;2023-03-01T12:55:40;25.23;;;14.40;;
12302;SDS011;6214;48.012;7.862;2023-03-01T12:58:16;26.20;;;15.53;;
12302;SDS011;6214;48.012;7.862;2023-03-01T13:01:08;26.20;;;13.60;;
12302;SDS011;6214;48.012;7.862;2023-03-01T13:07:04;25.70;;;13.90;;
12302;SDS011;6214;48.012;7.862;2023-03-01T13:09:45;25.50;;;13.80;;
12302;SDS011;6214;48.012;7.862;2023-03-01T13:15:28;25.73;;;14.23;;
12302;SDS011;6214;48.012;7.862;2023-03-01T13:17:57;26.90;;;15.00;;
12302;SDS011;6214;48.012;7.862;2023-03-01T13:20:27;27.02;;;14.68;;
12302;SDS011;6214;48.012;7.862;2023-03-01T13:23:00;26.85;;;15.60;;
12302;SDS011;6214;48.012;7.862;2023-03-01T13:31:05;25.13;;;14.15;;
12302;SDS011;6214;48.012;7.862;2023-03-01T13:33:39;26.05;;;14.55;;
12302;SDS011;6214;48.012;7.862;2023-03-01T13:41:58;27.58;;;14.18;;
12302;SDS011;6214;48.012;7.862;2023-03-01T13:49:41;25.75;;;14.00;;
12302;SDS011;6214;48.012;7.862;2023-03-01T13:57:41;26.80;;;14.60;;
12302;SDS011;6214;48.012;7.862;2023-03-01T14:00:29;26.42;;;14.13;;
12302;SDS011;6214;48.012;7.862;2023-03-01T14:03:13;27.65;;;14.80;;
12302;SDS011;6214;48.012;7.862;2023-03-01T14:05:41;25.45;;;14.63;;
12302;SDS011;6214;48.012;7.862;2023-03-01T14:08:18;24.77;;;13.45;;
12302;SDS011;6214;48.012;7.862;2023-03-01T14:25:26;26.15;;;14.55;;
12302;SDS011;6214;48.012;7.862;2023-03-01T14:28:00;24.17;;;13.32;;
12302;SDS011;6214;48.012;7.862;2023-03-01T14:30:45;25.02;;;13.68;;
12302;SDS011;6214;48.012;7.862;2023-03-01T14:33:19;25.90;;;13.73;;
12302;SDS011;6214;48.012;7.862;2023-03-01T14:38:40;25.95;;;14.20;;
12302;SDS011;6214;48.012;7.862;2023-03-01T14:41:19;26.17;;;14.87;;
12302;SDS011;6214;48.012;7.862;2023-03-01T14:46:24;26.58;;;14.85;;
12302;SDS011;6214;48.012;7.862;2023-03-01T14:49:01;25.30;;;14.52;;
12302;SDS011;6214;48.012;7.862;2023-03-01T14:51:39;25.67;;;14.50;;
12302;SDS011;6214;48.012;7.862;2023-03-01T14:54:18;25.85;;;15.20;;
12302;SDS011;6214;48.012;7.862;2023-03-01T14:56:50;25.73;;;13.50;;
12302;SDS011;6214;48.012;7.862;2023-03-01T14:59:20;26.45;;;12.88;;
12302;SDS011;6214;48.012;7.862;2023-03-01T15:01:53;26.58;;;14.88;;
12302;SDS011;6214;48.012;7.862;2023-03-01T15:04:23;25.73;;;14.10;;
12302;SDS011;6214;48.012;7.862;2023-03-01T15:06:52;26.42;;;13.90;;
12302;SDS011;6214;48.012;7.862;2023-03-01T15:09:21;25.70;;;15.05;;
12302;SDS011;6214;48.012;7.862;2023-03-01T15:11:49;26.20;;;13.38;;
12302;SDS011;6214;48.012;7.862;2023-03-01T15:14:36;25.88;;;14.38;;
12302;SDS011;6214;48.012;7.862;2023-03-01T15:17:30;25.08;;;14.27;;
12302;SDS011;6214;48.012;7.862;2023-03-01T15:19:59;25.13;;;13.88;;
12302;SDS011;6214;48.012;7.862;2023-03-01T15:22:28;28.80;;;17.75;;
12302;SDS011;6214;48.012;7.862;2023-03-01T15:24:55;28.87;;;16.70;;
12302;SDS011;6214;48.012;7.862;2023-03-01T15:27:24;31.33;;;19.30;;
12302;SDS011;6214;48.012;7.862;2023-03-01T15:29:58;29.33;;;17.63;;
12302;SDS011;6214;48.012;7.862;2023-03-01T15:32:35;28.80;;;16.52;;
12302;SDS011;6214;48.012;7.862;2023-03-01T15:41:01;32.53;;;20.90;;
12302;SDS011;6214;48.012;7.862;2023-03-01T15:43:40;29.73;;;21.00;;
12302;SDS011;6214;48.012;7.862;2023-03-01T15:46:30;30.27;;;20.13;;
12302;SDS011;6214;48.012;7.862;2023-03-01T15:48:59;30.30;;;20.15;;
12302;SDS011;6214;48.012;7.862;2023-03-01T15:51:32;32.47;;;20.33;;
12302;SDS011;6214;48.012;7.862;2023-03-01T15:54:03;33.45;;;21.10;;
12302;SDS011;6214;48.012;7.862;2023-03-01T15:56:57;32.78;;;21.20;;
12302;SDS011;6214;48.012;7.862;2023-03-01T15:59:24;31.55;;;20.10;;
12302;SDS011;6214;48.012;7.862;2023-03-01T16:01:51;31.20;;;20.88;;
12302;SDS011;6214;48.012;7.862;2023-03-01T16:04:18;30.10;;;19.65;;
12302;SDS011;6214;48.012;7.862;2023-03-01T16:06:50;33.20;;;21.50;;
12302;SDS011;6214;48.012;7.862;2023-03-01T16:09:24;32.60;;;19.90;;
12302;SDS011;6214;48.012;7.862;2023-03-01T16:11:52;32.13;;;20.98;;
12302;SDS011;6214;48.012;7.862;2023-03-01T16:14:20;33.30;;;20.45;;
12302;SDS011;6214;48.012;7.862;2023-03-01T16:16:48;32.33;;;21.40;;
12302;SDS011;6214;48.012;7.862;2023-03-01T16:19:15;31.55;;;20.60;;
12302;SDS011;6214;48.012;7.862;2023-03-01T16:21:42;32.90;;;21.13;;
12302;SDS011;6214;48.012;7.862;2023-03-01T16:24:13;33.15;;;21.70;;
12302;SDS011;6214;48.012;7.862;2023-03-01T16:26:40;33.35;;;22.27;;
12302;SDS011;6214;48.012;7.862;2023-03-01T16:29:08;33.30;;;21.83;;
12302;SDS011;6214;48.012;7.862;2023-03-01T16:31:35;32.92;;;20.63;;
12302;SDS011;6214;48.012;7.862;2023-03-01T16:34:02;32.03;;;19.63;;
12302;SDS011;6214;48.012;7.862;2023-03-01T16:36:29;31.98;;;19.75;;
12302;SDS011;6214;48.012;7.862;2023-03-01T16:39:00;32.05;;;20.48;;
12302;SDS011;6214;48.012;7.862;2023-03-01T16:41:27;32.28;;;21.20;;
12302;SDS011;6214;48.012;7.862;2023-03-01T16:43:55;34.00;;;21.98;;
12302;SDS011;6214;48.012;7.862;2023-03-01T16:46:23;35.00;;;22.40;;
12302;SDS011;6214;48.012;7.862;2023-03-01T16:48:57;34.80;;;22.25;;
12302;SDS011;6214;48.012;7.862;2023-03-01T16:51:24;37.45;;;23.45;;
12302;SDS011;6214;48.012;7.862;2023-03-01T16:53:51;33.60;;;22.30;;
12302;SDS011;6214;48.012;7.862;2023-03-01T16:56:19;34.38;;;21.98;;
12302;SDS011;6214;48.012;7.862;2023-03-01T16:58:46;33.30;;;22.33;;
12302;SDS011;6214;48.012;7.862;2023-03-01T17:01:15;33.60;;;21.35;;
12302;SDS011;6214;48.012;7.862;2023-03-01T17:03:44;32.20;;;20.63;;
12302;SDS011;6214;48.012;7.862;2023-03-01T17:06:17;34.60;;;21.88;;
12302;SDS011;6214;48.012;7.862;2023-03-01T17:08:46;32.22;;;20.33;;
12302;SDS011;6214;48.012;7.862;2023-03-01T17:11:17;32.05;;;21.60;;
12302;SDS011;6214;48.012;7.862;2023-03-01T17:13:45;32.00;;;20.38;;
12302;SDS011;6214;48.012;7.862;2023-03-01T17:16:13;31.48;;;21.17;;
12302;SDS011;6214;48.012;7.862;2023-03-01T17:18:42;33.20;;;20.50;;
12302;SDS011;6214;48.012;7.862;2023-03-01T17:21:09;34.45;;;21.40;;
12302;SDS011;6214;48.012;7.862;2023-03-01T17:23:37;31.83;;;20.27;;
12302;SDS011;6214;48.012;7.862;2023-03-01T17:26:05;32.73;;;21.00;;
12302;SDS011;6214;48.012;7.862;2023-03-01T17:28:33;33.03;;;21.27;;